Time;durP1;ratioP1;P1;durP2;ratioP2;P2;SDS_P1;SDS_P2;PMS_P1;PMS_P2;Temp;Humidity;BMP_temperature;BMP_pressure;BME280_temperature;BME280_humidity;BME280_pressure;Samples;Min_cycle;Max_cycle;Signal;HPM_P1;HPM_P2
2021/07/12 00:01:03;;;;;;;10.68;9.57;;;;;;;;;;5074129;28;20429;-84
2021/07/12 00:03:29;;;;;;;11.68;9.30;;;;;;;;;;5073867;28;20373;-84
2021/07/12 00:05:55;;;;;;;11.10;9.15;;;;;;;;;;5074183;28;20738;-84
2021/07/12 00:08:21;;;;;;;9.80;8.93;;;;;;;;;;5092186;28;20377;-84
2021/07/12 00:10:47;;;;;;;10.20;9.20;;;;;;;;;;5073640;28;20777;-85
2021/07/12 00:13:13;;;;;;;10.97;8.80;;;;;;;;;;5074209;28;20360;-85
2021/07/12 00:15:39;;;;;;;9.70;8.77;;;;;;;;;;5073903;28;20368;-84
2021/07/12 00:18:05;;;;;;;10.73;7.95;;;;;;;;;;5074388;28;20372;-85
2021/07/12 00:20:31;;;;;;;9.75;8.75;;;;;;;;;;5074533;28;20380;-84
2021/07/12 00:22:58;;;;;;;10.00;9.10;;;;;;;;;;5090359;28;20448;-85
2021/07/12 00:25:25;;;;;;;9.82;8.68;;;;;;;;;;5074443;28;20426;-85
2021/07/12 00:27:52;;;;;;;9.98;8.98;;;;;;;;;;5074231;28;20376;-85
2021/07/12 00:30:19;;;;;;;9.90;8.90;;;;;;;;;;5073327;28;20396;-84
2021/07/12 00:32:46;;;;;;;10.43;9.10;;;;;;;;;;5091411;28;20372;-84
2021/07/12 00:35:12;;;;;;;9.68;8.88;;;;;;;;;;5089667;28;20373;-84
2021/07/12 00:37:38;;;;;;;10.27;9.38;;;;;;;;;;5071487;28;20722;-84
2021/07/12 00:40:05;;;;;;;10.57;9.40;;;;;;;;;;5089832;28;20708;-84
2021/07/12 00:42:31;;;;;;;9.60;8.73;;;;;;;;;;5071769;28;20365;-84
2021/07/12 00:44:57;;;;;;;12.30;9.85;;;;;;;;;;5090836;28;20716;-85
2021/07/12 00:47:23;;;;;;;11.27;9.98;;;;;;;;;;5072327;28;20380;-84
2021/07/12 00:49:49;;;;;;;10.80;9.70;;;;;;;;;;5073136;28;20375;-85
2021/07/12 00:52:15;;;;;;;12.70;10.00;;;;;;;;;;5091355;28;20400;-85
2021/07/12 00:54:41;;;;;;;10.32;9.18;;;;;;;;;;5091012;28;20438;-84
2021/07/12 00:57:07;;;;;;;13.10;9.85;;;;;;;;;;5091760;28;20426;-84
2021/07/12 00:59:35;;;;;;;10.55;9.50;;;;;;;;;;5072990;28;20927;-85
2021/07/12 01:02:01;;;;;;;12.57;10.20;;;;;;;;;;5073009;28;20365;-84
2021/07/12 01:04:27;;;;;;;12.48;10.77;;;;;;;;;;5090885;28;20377;-84
2021/07/12 01:06:53;;;;;;;11.73;10.45;;;;;;;;;;5090910;28;20375;-85
2021/07/12 01:09:19;;;;;;;13.88;10.50;;;;;;;;;;5090994;28;20787;-85
2021/07/12 01:12:03;;;;;;;11.23;10.13;;;;;;;;;;5072777;28;20393;-85
2021/07/12 01:14:48;;;;;;;10.15;9.25;;;;;;;;;;5072549;28;20373;-85
2021/07/12 01:17:14;;;;;;;11.98;10.77;;;;;;;;;;5072788;28;20384;-85
2021/07/12 01:20:05;;;;;;;11.98;10.55;;;;;;;;;;5072486;28;20422;-85
2021/07/12 01:22:34;;;;;;;10.93;10.02;;;;;;;;;;5073116;28;20417;-85
2021/07/12 01:25:19;;;;;;;11.23;10.13;;;;;;;;;;5091044;28;20369;-85
2021/07/12 01:27:48;;;;;;;11.83;9.70;;;;;;;;;;5091195;28;20435;-85
2021/07/12 01:30:14;;;;;;;9.85;8.95;;;;;;;;;;5091213;28;20372;-84
2021/07/12 01:32:52;;;;;;;10.95;9.95;;;;;;;;;;5073270;28;20388;-85
2021/07/12 01:35:22;;;;;;;10.98;9.88;;;;;;;;;;5091122;28;20380;-84
2021/07/12 01:37:58;;;;;;;11.15;10.02;;;;;;;;;;5072796;28;20870;-85
2021/07/12 01:40:31;;;;;;;11.15;10.02;;;;;;;;;;5090825;28;20376;-85
2021/07/12 01:43:03;;;;;;;11.88;10.77;;;;;;;;;;5072949;28;20467;-84
2021/07/12 01:45:36;;;;;;;11.20;10.00;;;;;;;;;;5072854;28;20408;-84
2021/07/12 01:48:04;;;;;;;11.10;10.03;;;;;;;;;;5091298;28;20377;-84
2021/07/12 01:50:34;;;;;;;11.48;10.35;;;;;;;;;;5090475;28;20384;-84
2021/07/12 01:53:10;;;;;;;11.15;10.23;;;;;;;;;;5090927;28;20404;-85
2021/07/12 01:56:02;;;;;;;11.98;10.88;;;;;;;;;;5072461;28;20877;-85
2021/07/12 01:58:31;;;;;;;12.02;10.68;;;;;;;;;;5034711;28;20372;-84
2021/07/12 02:00:57;;;;;;;13.70;10.73;;;;;;;;;;5072713;28;20886;-84
2021/07/12 02:03:24;;;;;;;11.80;10.45;;;;;;;;;;5090666;28;20365;-85
2021/07/12 02:05:51;;;;;;;15.98;10.77;;;;;;;;;;5090952;28;20910;-85
2021/07/12 02:08:22;;;;;;;11.98;10.90;;;;;;;;;;5076727;28;20391;-84
2021/07/12 02:10:50;;;;;;;12.23;11.13;;;;;;;;;;5076797;28;20392;-85
2021/07/12 02:13:15;;;;;;;12.95;11.73;;;;;;;;;;5076694;28;20866;-85
2021/07/12 02:15:44;;;;;;;11.82;10.63;;;;;;;;;;5076801;28;20387;-85
2021/07/12 02:18:10;;;;;;;12.98;11.65;;;;;;;;;;5076621;28;20374;-84
2021/07/12 02:20:37;;;;;;;13.15;11.77;;;;;;;;;;5076461;28;20376;-84
2021/07/12 02:23:05;;;;;;;13.05;11.75;;;;;;;;;;5095166;28;20447;-85
2021/07/12 02:25:31;;;;;;;12.82;11.57;;;;;;;;;;5077443;28;20878;-84
2021/07/12 02:27:57;;;;;;;13.25;12.05;;;;;;;;;;5076558;28;20764;-85
2021/07/12 02:30:24;;;;;;;13.32;11.73;;;;;;;;;;5076575;28;20366;-84
2021/07/12 02:32:51;;;;;;;13.45;12.35;;;;;;;;;;5095168;28;20455;-84
2021/07/12 02:35:17;;;;;;;13.32;11.93;;;;;;;;;;5076417;28;20381;-84
2021/07/12 02:37:45;;;;;;;13.45;12.10;;;;;;;;;;5076227;28;20927;-84
2021/07/12 02:40:12;;;;;;;13.13;11.75;;;;;;;;;;5076218;28;20397;-84
2021/07/12 02:42:40;;;;;;;14.27;12.93;;;;;;;;;;5094383;28;20902;-85
2021/07/12 02:45:07;;;;;;;14.38;13.02;;;;;;;;;;5076518;28;20379;-85
2021/07/12 02:47:34;;;;;;;14.20;12.75;;;;;;;;;;5076427;28;20455;-85
2021/07/12 02:50:00;;;;;;;15.07;12.27;;;;;;;;;;5076758;28;20383;-85
2021/07/12 02:52:29;;;;;;;13.73;12.52;;;;;;;;;;5075940;28;20420;-85
2021/07/12 02:54:58;;;;;;;13.67;12.40;;;;;;;;;;5076190;28;20935;-85
2021/07/12 02:57:24;;;;;;;13.38;12.23;;;;;;;;;;5076348;28;20380;-85
2021/07/12 02:59:50;;;;;;;13.45;12.35;;;;;;;;;;5094248;28;20897;-84
2021/07/12 03:02:16;;;;;;;14.27;12.97;;;;;;;;;;5094463;28;20379;-85
2021/07/12 03:04:42;;;;;;;14.50;13.20;;;;;;;;;;5075951;28;20400;-87
2021/07/12 03:07:11;;;;;;;13.45;12.05;;;;;;;;;;5075651;28;20391;-87
2021/07/12 03:09:40;;;;;;;14.43;13.05;;;;;;;;;;5075810;28;20414;-86
2021/07/12 03:12:13;;;;;;;13.32;12.20;;;;;;;;;;5075351;28;20407;-85
2021/07/12 03:14:48;;;;;;;13.63;12.43;;;;;;;;;;5094078;28;20981;-85
2021/07/12 03:17:14;;;;;;;12.20;11.10;;;;;;;;;;5075409;28;20372;-85
2021/07/12 03:19:41;;;;;;;11.70;10.70;;;;;;;;;;5075150;28;20405;-85
2021/07/12 03:22:10;;;;;;;13.05;11.85;;;;;;;;;;5093577;28;20722;-86
2021/07/12 03:24:36;;;;;;;12.35;11.15;;;;;;;;;;5075374;28;20446;-86
2021/07/12 03:27:03;;;;;;;12.25;10.95;;;;;;;;;;5075167;28;20969;-86
2021/07/12 03:29:30;;;;;;;12.63;11.52;;;;;;;;;;5093164;28;20372;-85
2021/07/12 03:31:58;;;;;;;12.25;11.23;;;;;;;;;;5075157;28;20478;-85
2021/07/12 03:34:27;;;;;;;12.63;11.15;;;;;;;;;;5074980;28;20911;-85
2021/07/12 03:36:53;;;;;;;13.52;11.40;;;;;;;;;;5075456;28;20364;-85
2021/07/12 03:39:20;;;;;;;16.83;12.10;;;;;;;;;;5075716;28;20437;-84
2021/07/12 03:41:46;;;;;;;12.98;11.85;;;;;;;;;;5075536;28;20468;-84
2021/07/12 03:44:12;;;;;;;13.68;12.48;;;;;;;;;;5075722;28;20471;-84
2021/07/12 03:46:41;;;;;;;14.20;12.88;;;;;;;;;;5075461;28;20410;-85
2021/07/12 03:49:15;;;;;;;13.20;12.10;;;;;;;;;;5075239;28;20376;-84
2021/07/12 03:51:41;;;;;;;13.80;12.52;;;;;;;;;;5093014;28;20403;-84
2021/07/12 03:54:07;;;;;;;13.40;12.27;;;;;;;;;;5075339;28;20950;-84
2021/07/12 03:56:33;;;;;;;12.88;11.88;;;;;;;;;;5075103;28;20380;-84
2021/07/12 03:58:59;;;;;;;13.32;12.13;;;;;;;;;;5074948;28;20395;-85
2021/07/12 04:01:26;;;;;;;13.68;12.32;;;;;;;;;;5075259;28;20496;-83
2021/07/12 04:03:53;;;;;;;12.77;11.68;;;;;;;;;;5093405;28;20384;-84
2021/07/12 04:06:19;;;;;;;13.07;11.85;;;;;;;;;;5074616;28;20459;-84
2021/07/12 04:08:45;;;;;;;13.10;12.00;;;;;;;;;;5092615;28;20988;-84
2021/07/12 04:11:12;;;;;;;23.38;13.10;;;;;;;;;;5074171;28;20487;-84
2021/07/12 04:13:39;;;;;;;20.60;12.00;;;;;;;;;;5092329;28;20375;-84
2021/07/12 04:16:05;;;;;;;12.52;11.32;;;;;;;;;;5092733;28;20360;-84
2021/07/12 04:18:31;;;;;;;12.68;11.68;;;;;;;;;;5092408;28;21024;-84
2021/07/12 04:20:57;;;;;;;12.67;11.57;;;;;;;;;;5074437;28;20747;-84
2021/07/12 04:23:23;;;;;;;12.85;11.75;;;;;;;;;;5074200;28;20429;-84
2021/07/12 04:25:49;;;;;;;12.73;11.48;;;;;;;;;;5092508;28;20874;-85
2021/07/12 04:28:15;;;;;;;11.57;10.68;;;;;;;;;;5074236;28;20411;-85
2021/07/12 04:30:41;;;;;;;11.77;10.77;;;;;;;;;;5073536;28;20404;-85
2021/07/12 04:33:07;;;;;;;11.23;10.27;;;;;;;;;;5074178;28;20384;-86
2021/07/12 04:35:34;;;;;;;11.40;10.50;;;;;;;;;;5092588;28;20372;-85
2021/07/12 04:38:00;;;;;;;12.20;11.20;;;;;;;;;;5074415;28;20870;-85
2021/07/12 04:40:26;;;;;;;12.52;11.32;;;;;;;;;;5092980;28;20364;-85
2021/07/12 04:42:52;;;;;;;11.48;10.38;;;;;;;;;;5092617;28;20416;-86
2021/07/12 04:45:18;;;;;;;12.57;11.48;;;;;;;;;;5073763;28;20979;-86
2021/07/12 04:47:44;;;;;;;14.13;11.20;;;;;;;;;;5074180;28;20365;-86
2021/07/12 04:50:10;;;;;;;12.05;11.05;;;;;;;;;;5073874;28;20368;-86
2021/07/12 04:52:37;;;;;;;11.90;11.00;;;;;;;;;;5074018;28;20902;-84
2021/07/12 04:55:06;;;;;;;13.25;11.95;;;;;;;;;;5073727;28;20378;-85
2021/07/12 04:57:32;;;;;;;12.73;11.70;;;;;;;;;;5091923;28;20368;-85
2021/07/12 04:59:58;;;;;;;13.43;12.30;;;;;;;;;;5092066;28;20904;-84
2021/07/12 05:02:24;;;;;;;13.63;12.20;;;;;;;;;;5091506;28;20361;-86
2021/07/12 05:04:50;;;;;;;12.82;11.75;;;;;;;;;;5091344;28;20364;-84
2021/07/12 05:07:16;;;;;;;13.48;12.30;;;;;;;;;;5072863;28;20959;-84
2021/07/12 05:09:42;;;;;;;13.80;12.60;;;;;;;;;;5073460;28;20376;-85
2021/07/12 05:12:11;;;;;;;12.93;11.65;;;;;;;;;;5092086;28;20483;-87
2021/07/12 05:14:38;;;;;;;11.70;10.70;;;;;;;;;;5073221;28;20376;-86
2021/07/12 05:17:05;;;;;;;12.38;11.27;;;;;;;;;;5091921;28;20368;-85
2021/07/12 05:19:31;;;;;;;12.40;11.13;;;;;;;;;;5091455;28;20459;-85
2021/07/12 05:21:57;;;;;;;10.85;9.90;;;;;;;;;;5091668;28;20385;-86
2021/07/12 05:24:23;;;;;;;11.90;10.88;;;;;;;;;;5073729;28;20368;-84
2021/07/12 05:26:49;;;;;;;12.20;11.10;;;;;;;;;;5090964;28;20402;-85
2021/07/12 05:29:17;;;;;;;11.57;10.52;;;;;;;;;;5072902;28;20408;-84
2021/07/12 05:31:43;;;;;;;13.77;11.52;;;;;;;;;;5090914;28;20404;-85
2021/07/12 05:34:09;;;;;;;11.63;10.65;;;;;;;;;;5090739;28;20368;-85
2021/07/12 05:36:35;;;;;;;12.40;11.17;;;;;;;;;;5072502;28;20472;-85
2021/07/12 05:39:01;;;;;;;12.10;11.00;;;;;;;;;;5072468;28;20952;-89
2021/07/12 05:41:27;;;;;;;11.75;10.70;;;;;;;;;;5071581;28;20379;-84
2021/07/12 05:43:53;;;;;;;10.55;9.70;;;;;;;;;;5091316;28;20464;-86
2021/07/12 05:46:19;;;;;;;11.25;10.20;;;;;;;;;;5091089;28;20373;-85
2021/07/12 05:48:45;;;;;;;11.48;10.57;;;;;;;;;;5090869;28;20999;-85
2021/07/12 05:51:11;;;;;;;12.32;10.80;;;;;;;;;;5090572;28;20396;-88
2021/07/12 05:53:37;;;;;;;12.23;10.93;;;;;;;;;;5072241;28;20375;-85
2021/07/12 05:56:03;;;;;;;11.00;10.00;;;;;;;;;;5072218;28;20361;-85
2021/07/12 05:58:29;;;;;;;11.55;10.35;;;;;;;;;;5072032;28;20377;-85
2021/07/12 06:00:55;;;;;;;11.70;10.32;;;;;;;;;;5072415;28;20471;-86
2021/07/12 06:03:21;;;;;;;11.48;10.38;;;;;;;;;;5072363;28;20422;-86
2021/07/12 06:05:47;;;;;;;11.38;10.13;;;;;;;;;;5072321;28;20387;-86
2021/07/12 06:08:13;;;;;;;12.73;9.93;;;;;;;;;;5071834;28;20475;-89
2021/07/12 06:10:40;;;;;;;17.60;10.10;;;;;;;;;;5090004;28;20488;-85
2021/07/12 06:13:06;;;;;;;10.27;8.10;;;;;;;;;;5090117;28;20408;-87
2021/07/12 06:15:32;;;;;;;10.05;8.95;;;;;;;;;;5071959;28;20375;-86
2021/07/12 06:17:58;;;;;;;9.57;8.68;;;;;;;;;;5090183;28;20402;-86
2021/07/12 06:20:24;;;;;;;10.13;8.33;;;;;;;;;;5071908;28;20396;-87
2021/07/12 06:22:51;;;;;;;9.00;8.27;;;;;;;;;;5072401;28;20369;-87
2021/07/12 06:25:17;;;;;;;8.45;7.75;;;;;;;;;;5071957;28;20415;-86
2021/07/12 06:27:43;;;;;;;8.70;7.90;;;;;;;;;;5071791;28;20500;-85
2021/07/12 06:30:12;;;;;;;8.65;7.85;;;;;;;;;;5073242;28;20392;-89
2021/07/12 06:32:38;;;;;;;8.18;7.38;;;;;;;;;;5072563;28;20501;-87
2021/07/12 06:35:05;;;;;;;7.95;7.15;;;;;;;;;;5090645;28;20376;-86
2021/07/12 06:37:31;;;;;;;7.85;7.05;;;;;;;;;;5072348;28;20375;-89
2021/07/12 06:39:57;;;;;;;7.95;7.15;;;;;;;;;;5068496;28;20396;-87
2021/07/12 06:42:23;;;;;;;7.68;7.00;;;;;;;;;;5089735;28;20372;-90
2021/07/12 06:44:50;;;;;;;15.00;7.60;;;;;;;;;;5071720;28;20471;-89
2021/07/12 06:47:16;;;;;;;7.28;6.50;;;;;;;;;;5071726;28;20373;-87
2021/07/12 06:49:42;;;;;;;8.60;6.97;;;;;;;;;;5090664;28;20844;-86
2021/07/12 06:52:09;;;;;;;7.25;6.55;;;;;;;;;;5072250;28;20485;-88
2021/07/12 06:54:35;;;;;;;7.05;6.35;;;;;;;;;;5075088;28;20376;-89
2021/07/12 06:57:01;;;;;;;7.80;6.85;;;;;;;;;;5093549;28;20380;-86
2021/07/12 06:59:28;;;;;;;7.15;6.43;;;;;;;;;;5074766;28;20376;-86
2021/07/12 07:01:54;;;;;;;7.70;6.90;;;;;;;;;;5072305;28;20372;-88
2021/07/12 07:04:20;;;;;;;7.60;6.60;;;;;;;;;;5055148;28;20376;-88
2021/07/12 07:06:46;;;;;;;7.60;6.90;;;;;;;;;;5093372;28;20730;-90
2021/07/12 07:09:12;;;;;;;7.38;6.78;;;;;;;;;;5074980;28;20483;-88
2021/07/12 07:11:38;;;;;;;7.73;7.03;;;;;;;;;;5092365;28;20412;-87
2021/07/12 07:14:05;;;;;;;7.55;6.75;;;;;;;;;;5092532;28;20381;-87
2021/07/12 07:16:31;;;;;;;6.32;5.75;;;;;;;;;;5074843;28;20747;-87
2021/07/12 07:18:57;;;;;;;7.43;6.80;;;;;;;;;;5074527;28;20815;-90
2021/07/12 07:21:23;;;;;;;11.70;6.50;;;;;;;;;;5074278;28;20789;-88
2021/07/12 07:23:49;;;;;;;6.75;6.15;;;;;;;;;;5059151;28;20428;-87
2021/07/12 07:26:15;;;;;;;6.60;6.00;;;;;;;;;;5090443;28;20405;-86
2021/07/12 07:28:41;;;;;;;6.60;5.95;;;;;;;;;;5092073;28;20372;-85
2021/07/12 07:31:07;;;;;;;12.10;6.20;;;;;;;;;;5074240;28;20401;-88
2021/07/12 07:33:33;;;;;;;6.45;5.85;;;;;;;;;;5074960;28;20511;-88
2021/07/12 07:35:59;;;;;;;6.22;5.63;;;;;;;;;;5092725;28;20862;-85
2021/07/12 07:38:26;;;;;;;6.68;6.13;;;;;;;;;;5092652;28;20441;-88
2021/07/12 07:40:52;;;;;;;6.22;5.63;;;;;;;;;;5075094;28;20368;-88
2021/07/12 07:43:18;;;;;;;5.80;5.28;;;;;;;;;;5074969;28;20380;-87
2021/07/12 07:45:44;;;;;;;5.45;4.95;;;;;;;;;;5078933;28;20371;-87
2021/07/12 07:48:10;;;;;;;8.18;5.68;;;;;;;;;;5076481;28;20373;-89
2021/07/12 07:50:39;;;;;;;6.90;6.03;;;;;;;;;;5076811;28;20400;-86
2021/07/12 07:53:05;;;;;;;5.93;5.43;;;;;;;;;;5094461;28;20388;-88
2021/07/12 07:55:31;;;;;;;10.70;6.55;;;;;;;;;;5092642;28;20365;-87
2021/07/12 07:57:57;;;;;;;7.65;5.30;;;;;;;;;;5075787;28;20376;-87
2021/07/12 08:00:24;;;;;;;7.03;6.28;;;;;;;;;;5074853;28;20365;-87
2021/07/12 08:02:50;;;;;;;9.00;5.65;;;;;;;;;;5074967;28;20368;-84
2021/07/12 08:05:17;;;;;;;6.63;6.05;;;;;;;;;;5091091;28;20360;-88
2021/07/12 08:07:43;;;;;;;6.90;6.07;;;;;;;;;;5074218;28;20385;-85
2021/07/12 08:10:11;;;;;;;14.98;7.28;;;;;;;;;;5092202;28;20391;-87
2021/07/12 08:12:37;;;;;;;81.60;18.75;;;;;;;;;;5073738;28;20403;-84
2021/07/12 08:15:04;;;;;;;7.72;5.80;;;;;;;;;;5092983;28;20361;-85
2021/07/12 08:17:30;;;;;;;11.05;7.00;;;;;;;;;;5074860;28;20426;-86
2021/07/12 08:19:56;;;;;;;7.27;6.50;;;;;;;;;;5077161;28;20376;-86
2021/07/12 08:22:22;;;;;;;6.97;6.32;;;;;;;;;;5091623;28;20481;-85
2021/07/12 08:24:48;;;;;;;7.10;6.18;;;;;;;;;;5071241;28;20384;-87
2021/07/12 08:27:14;;;;;;;8.48;6.35;;;;;;;;;;5070333;28;20913;-85
2021/07/12 08:29:40;;;;;;;13.82;7.13;;;;;;;;;;5089019;28;20847;-86
2021/07/12 08:32:06;;;;;;;11.75;6.47;;;;;;;;;;5070667;28;20905;-86
2021/07/12 08:34:38;;;;;;;6.78;6.18;;;;;;;;;;5070604;28;20463;-88
2021/07/12 08:37:05;;;;;;;9.77;7.00;;;;;;;;;;5070858;28;20468;-86
2021/07/12 08:39:31;;;;;;;11.88;6.30;;;;;;;;;;5071139;28;20758;-89
2021/07/12 08:41:59;;;;;;;6.28;5.60;;;;;;;;;;5072420;28;20365;-86
2021/07/12 08:44:25;;;;;;;7.23;5.30;;;;;;;;;;5071352;28;20397;-87
2021/07/12 08:46:51;;;;;;;5.95;5.40;;;;;;;;;;5069459;28;20412;-84
2021/07/12 08:49:17;;;;;;;15.45;6.00;;;;;;;;;;5089274;28;20917;-89
2021/07/12 08:51:43;;;;;;;9.65;5.88;;;;;;;;;;5070464;28;20412;-84
2021/07/12 08:54:09;;;;;;;8.27;5.33;;;;;;;;;;5071254;28;20426;-85
2021/07/12 08:56:37;;;;;;;6.53;5.45;;;;;;;;;;5088954;28;20835;-88
2021/07/12 08:59:22;;;;;;;6.00;5.40;;;;;;;;;;5070562;28;20368;-87
2021/07/12 09:02:00;;;;;;;6.15;5.47;;;;;;;;;;5071017;28;20506;-85
2021/07/12 09:04:27;;;;;;;5.78;5.03;;;;;;;;;;5089022;28;20447;-87
2021/07/12 09:07:05;;;;;;;11.52;5.85;;;;;;;;;;5071645;28;20418;-90
2021/07/12 09:09:32;;;;;;;5.82;5.32;;;;;;;;;;5071795;28;20387;-86
2021/07/12 09:12:19;;;;;;;6.20;5.30;;;;;;;;;;5068835;28;20491;-86
2021/07/12 09:15:01;;;;;;;6.00;5.50;;;;;;;;;;5069162;28;20380;-85
2021/07/12 09:17:32;;;;;;;6.05;5.50;;;;;;;;;;5087126;28;20458;-85
2021/07/12 09:19:58;;;;;;;6.18;5.57;;;;;;;;;;5069358;28;20407;-87
2021/07/12 09:22:30;;;;;;;6.68;5.93;;;;;;;;;;5088685;28;20365;-90
2021/07/12 09:24:56;;;;;;;6.55;5.80;;;;;;;;;;5070176;28;20385;-87
2021/07/12 09:27:24;;;;;;;6.10;5.50;;;;;;;;;;5070084;28;20789;-87
2021/07/12 09:29:51;;;;;;;8.00;5.65;;;;;;;;;;5088687;28;20356;-87
2021/07/12 09:32:20;;;;;;;13.30;6.13;;;;;;;;;;5070158;28;20416;-88
2021/07/12 09:34:48;;;;;;;6.03;5.63;;;;;;;;;;5069961;28;20414;-88
2021/07/12 09:37:16;;;;;;;6.55;5.40;;;;;;;;;;5071248;28;20451;-87
2021/07/12 09:39:44;;;;;;;6.13;5.30;;;;;;;;;;5070203;28;20383;-88
2021/07/12 09:42:14;;;;;;;5.90;5.30;;;;;;;;;;5070112;28;20349;-91
2021/07/12 09:44:51;;;;;;;6.57;5.22;;;;;;;;;;5070964;28;20415;-89
2021/07/12 09:47:19;;;;;;;6.57;5.32;;;;;;;;;;5069643;28;20408;-89
2021/07/12 09:49:46;;;;;;;6.05;5.55;;;;;;;;;;5070599;28;20360;-89
2021/07/12 09:52:14;;;;;;;6.47;5.80;;;;;;;;;;5069010;28;20917;-86
2021/07/12 09:54:41;;;;;;;6.60;6.10;;;;;;;;;;5088861;28;20380;-88
2021/07/12 09:57:08;;;;;;;11.57;7.10;;;;;;;;;;5070350;28;20882;-88
2021/07/12 09:59:35;;;;;;;7.57;6.85;;;;;;;;;;5088191;28;20372;-86
2021/07/12 10:02:01;;;;;;;25.67;8.88;;;;;;;;;;5086659;28;20380;-87
2021/07/12 10:04:28;;;;;;;10.47;7.03;;;;;;;;;;5067728;28;20372;-88
2021/07/12 10:06:55;;;;;;;9.07;8.18;;;;;;;;;;5070812;28;20384;-91
2021/07/12 10:09:24;;;;;;;8.10;7.30;;;;;;;;;;5068855;28;20388;-88
2021/07/12 10:11:53;;;;;;;8.70;7.38;;;;;;;;;;5068562;28;20400;-88
2021/07/12 10:14:20;;;;;;;8.52;7.38;;;;;;;;;;5070993;28;20384;-90
2021/07/12 10:16:46;;;;;;;7.55;6.95;;;;;;;;;;5071170;28;20425;-88
2021/07/12 10:19:12;;;;;;;7.85;7.18;;;;;;;;;;5078406;28;20376;-91
2021/07/12 10:21:40;;;;;;;7.82;7.22;;;;;;;;;;5090184;28;20380;-88
2021/07/12 10:24:06;;;;;;;8.25;7.38;;;;;;;;;;5081592;28;20369;-92
2021/07/12 10:26:46;;;;;;;8.65;7.93;;;;;;;;;;5077716;28;20373;-88
2021/07/12 10:29:13;;;;;;;8.73;7.83;;;;;;;;;;5074845;28;20373;-87
2021/07/12 10:31:58;;;;;;;8.82;8.00;;;;;;;;;;5083505;28;20412;-85
2021/07/12 10:34:29;;;;;;;10.55;8.50;;;;;;;;;;5081752;28;20376;-89
2021/07/12 10:37:06;;;;;;;9.80;8.90;;;;;;;;;;5078926;28;20387;-91
2021/07/12 10:39:51;;;;;;;10.02;9.02;;;;;;;;;;5073934;28;20862;-89
2021/07/12 10:42:36;;;;;;;25.38;10.30;;;;;;;;;;5098958;28;20427;-91
2021/07/12 10:45:16;;;;;;;9.88;8.98;;;;;;;;;;5073583;28;20890;-88
2021/07/12 10:47:43;;;;;;;10.00;9.05;;;;;;;;;;5075038;28;20378;-88
2021/07/12 10:50:28;;;;;;;9.52;8.63;;;;;;;;;;5075211;28;20471;-89
2021/07/12 10:52:54;;;;;;;9.90;8.90;;;;;;;;;;5076005;28;20913;-89
2021/07/12 10:55:33;;;;;;;9.60;8.63;;;;;;;;;;5076060;28;20403;-87
2021/07/12 10:58:19;;;;;;;9.40;8.70;;;;;;;;;;5097055;28;20464;-89
2021/07/12 11:00:49;;;;;;;8.65;7.95;;;;;;;;;;5074760;28;20478;-88
2021/07/12 11:03:34;;;;;;;8.57;7.82;;;;;;;;;;5076440;28;20733;-89
2021/07/12 11:06:01;;;;;;;8.48;7.68;;;;;;;;;;5076271;28;20414;-89
2021/07/12 11:08:47;;;;;;;8.07;7.47;;;;;;;;;;5074233;28;20408;-87
2021/07/12 11:11:33;;;;;;;8.43;7.35;;;;;;;;;;5092043;28;20501;-89
2021/07/12 11:14:07;;;;;;;13.77;8.18;;;;;;;;;;5071999;28;20465;-89
2021/07/12 11:16:47;;;;;;;8.30;7.50;;;;;;;;;;5073147;28;20750;-88
2021/07/12 11:19:20;;;;;;;7.97;7.25;;;;;;;;;;5072232;28;20724;-88
2021/07/12 11:21:47;;;;;;;7.10;6.18;;;;;;;;;;5071877;28;20380;-90
2021/07/12 11:24:15;;;;;;;7.28;6.68;;;;;;;;;;5074211;28;20954;-88
2021/07/12 11:26:45;;;;;;;6.97;6.27;;;;;;;;;;5075073;28;20452;-86
2021/07/12 11:29:14;;;;;;;7.40;6.70;;;;;;;;;;5072967;28;20513;-87
2021/07/12 11:31:51;;;;;;;7.28;6.57;;;;;;;;;;5073292;28;20954;-88
2021/07/12 11:34:18;;;;;;;8.40;6.43;;;;;;;;;;5090327;28;20383;-87
2021/07/12 11:37:04;;;;;;;7.05;6.35;;;;;;;;;;5094268;28;20414;-87
2021/07/12 11:39:31;;;;;;;7.23;6.47;;;;;;;;;;5074854;28;20922;-88
2021/07/12 11:41:58;;;;;;;7.63;6.72;;;;;;;;;;5071102;28;20385;-88
2021/07/12 11:44:24;;;;;;;8.55;5.65;;;;;;;;;;5073193;28;20365;-88
2021/07/12 11:46:50;;;;;;;6.32;5.72;;;;;;;;;;5072960;28;20380;-88
2021/07/12 11:49:21;;;;;;;6.73;6.13;;;;;;;;;;5074562;28;20372;-88
2021/07/12 11:51:51;;;;;;;6.82;6.18;;;;;;;;;;5081635;28;20419;-89
2021/07/12 11:54:22;;;;;;;6.45;5.90;;;;;;;;;;5072028;28;20472;-88
2021/07/12 11:56:57;;;;;;;6.68;6.18;;;;;;;;;;5074073;28;20405;-87
2021/07/12 11:59:30;;;;;;;7.35;6.55;;;;;;;;;;5078509;28;20447;-88
2021/07/12 12:01:57;;;;;;;7.57;6.97;;;;;;;;;;5080632;28;20389;-88
2021/07/12 12:04:23;;;;;;;6.95;6.28;;;;;;;;;;5081418;28;20427;-90
2021/07/12 12:06:50;;;;;;;6.80;6.20;;;;;;;;;;5074613;28;20840;-90
2021/07/12 12:09:17;;;;;;;6.28;5.78;;;;;;;;;;5070257;28;20758;-89
2021/07/12 12:11:44;;;;;;;6.90;6.38;;;;;;;;;;5072161;28;20412;-87
2021/07/12 12:14:11;;;;;;;7.30;5.93;;;;;;;;;;5067176;28;20395;-88
2021/07/12 12:16:37;;;;;;;6.82;6.18;;;;;;;;;;5070140;28;20384;-87
2021/07/12 12:19:15;;;;;;;7.47;6.60;;;;;;;;;;5089060;28;20380;-87
2021/07/12 12:21:41;;;;;;;7.43;6.85;;;;;;;;;;5076335;28;20380;-87
2021/07/12 12:24:11;;;;;;;7.90;7.10;;;;;;;;;;5075567;28;20380;-87
2021/07/12 12:26:38;;;;;;;11.47;7.70;;;;;;;;;;5071768;28;20384;-87
2021/07/12 12:29:12;;;;;;;8.50;7.60;;;;;;;;;;5070581;28;20382;-87
2021/07/12 12:31:39;;;;;;;7.55;6.97;;;;;;;;;;5071541;28;20396;-87
2021/07/12 12:34:10;;;;;;;7.25;6.65;;;;;;;;;;5069906;28;20383;-88
2021/07/12 12:36:38;;;;;;;8.03;7.27;;;;;;;;;;5072072;28;20445;-87
2021/07/12 12:39:07;;;;;;;8.68;7.88;;;;;;;;;;5074298;28;20441;-87
2021/07/12 12:41:36;;;;;;;19.63;8.93;;;;;;;;;;5073280;28;20360;-88
2021/07/12 12:44:02;;;;;;;8.68;8.07;;;;;;;;;;5072556;28;20384;-88
2021/07/12 12:46:28;;;;;;;9.50;8.50;;;;;;;;;;5091378;28;20464;-90
2021/07/12 12:48:54;;;;;;;8.32;7.63;;;;;;;;;;5073610;28;20405;-89
2021/07/12 12:51:24;;;;;;;9.00;8.15;;;;;;;;;;5071500;28;20400;-90
2021/07/12 12:53:57;;;;;;;8.20;7.40;;;;;;;;;;5074019;28;20376;-88
2021/07/12 12:56:23;;;;;;;8.73;7.17;;;;;;;;;;5072624;28;20373;-88
2021/07/12 12:59:03;;;;;;;8.38;7.60;;;;;;;;;;5073181;28;20919;-87
2021/07/12 13:01:30;;;;;;;8.50;7.80;;;;;;;;;;5070335;28;20447;-88
2021/07/12 13:04:05;;;;;;;8.45;7.65;;;;;;;;;;5073628;28;20392;-87
2021/07/12 13:06:44;;;;;;;8.65;7.75;;;;;;;;;;5088427;28;20422;-88
2021/07/12 13:09:13;;;;;;;8.07;7.47;;;;;;;;;;5072764;28;20751;-88
2021/07/12 13:11:39;;;;;;;13.25;8.88;;;;;;;;;;5073631;28;20446;-89
2021/07/12 13:14:05;;;;;;;8.48;7.57;;;;;;;;;;5072555;28;20399;-89
2021/07/12 13:16:33;;;;;;;8.48;7.68;;;;;;;;;;5073180;28;20515;-87
2021/07/12 13:19:00;;;;;;;8.38;7.53;;;;;;;;;;5072729;28;20835;-91
2021/07/12 13:21:45;;;;;;;8.45;7.63;;;;;;;;;;5072680;28;20361;-87
2021/07/12 13:24:11;;;;;;;8.45;7.65;;;;;;;;;;5089124;28;20372;-86
2021/07/12 13:26:37;;;;;;;9.82;7.90;;;;;;;;;;5067891;28;20449;-89
2021/07/12 13:29:03;;;;;;;11.02;8.20;;;;;;;;;;5091070;28;20387;-89
2021/07/12 13:31:29;;;;;;;8.50;7.70;;;;;;;;;;5089554;28;20776;-90
2021/07/12 13:33:56;;;;;;;8.75;8.05;;;;;;;;;;5071894;28;20388;-88
2021/07/12 13:36:23;;;;;;;8.48;7.78;;;;;;;;;;5070834;28;20862;-87
2021/07/12 13:38:49;;;;;;;8.85;8.15;;;;;;;;;;5070987;28;20372;-91
2021/07/12 13:41:15;;;;;;;7.75;7.15;;;;;;;;;;5074443;28;20841;-89
2021/07/12 13:43:41;;;;;;;7.72;7.13;;;;;;;;;;5074551;28;20373;-90
2021/07/12 13:46:07;;;;;;;8.70;7.90;;;;;;;;;;5073739;28;20376;-92
2021/07/12 13:48:33;;;;;;;7.82;7.20;;;;;;;;;;5073263;28;20368;-88
2021/07/12 13:50:59;;;;;;;7.63;6.93;;;;;;;;;;5073727;28;20388;-90
2021/07/12 13:53:25;;;;;;;8.73;7.88;;;;;;;;;;5074383;28;20420;-87
2021/07/12 13:55:51;;;;;;;8.27;7.68;;;;;;;;;;5073151;28;20376;-90
2021/07/12 13:58:17;;;;;;;11.40;8.10;;;;;;;;;;5082798;28;20380;-87
2021/07/12 14:00:43;;;;;;;10.02;8.40;;;;;;;;;;5098702;28;20376;-87
2021/07/12 14:03:09;;;;;;;9.43;7.53;;;;;;;;;;5082450;28;20368;-86
2021/07/12 14:05:35;;;;;;;7.93;7.20;;;;;;;;;;5086504;28;20369;-87
2021/07/12 14:08:03;;;;;;;9.45;8.55;;;;;;;;;;5084997;28;20459;-88
2021/07/12 14:10:30;;;;;;;8.50;7.60;;;;;;;;;;5078125;28;20399;-89
2021/07/12 14:12:56;;;;;;;8.35;7.65;;;;;;;;;;5076914;28;20467;-85
2021/07/12 14:15:23;;;;;;;8.82;7.50;;;;;;;;;;5078941;28;20439;-87
2021/07/12 14:17:49;;;;;;;7.57;6.97;;;;;;;;;;5095593;28;20363;-90
2021/07/12 14:20:15;;;;;;;8.30;7.60;;;;;;;;;;5076283;28;20371;-87
2021/07/12 14:22:41;;;;;;;8.37;7.57;;;;;;;;;;5078159;28;20401;-91
2021/07/12 14:25:08;;;;;;;8.10;7.30;;;;;;;;;;5095447;28;20370;-87
2021/07/12 14:27:34;;;;;;;7.90;7.20;;;;;;;;;;5077426;28;20372;-85
2021/07/12 14:30:01;;;;;;;7.80;7.10;;;;;;;;;;5076090;28;20523;-85
2021/07/12 14:32:27;;;;;;;7.47;6.77;;;;;;;;;;5075946;28;21004;-87
2021/07/12 14:34:53;;;;;;;7.55;6.88;;;;;;;;;;5095328;28;20937;-88
2021/07/12 14:37:19;;;;;;;7.97;7.38;;;;;;;;;;5095018;28;20384;-87
2021/07/12 14:39:45;;;;;;;8.80;7.47;;;;;;;;;;5078131;28;20720;-87